createdAt,value
2023-04-02T00:01:19.436Z,4.39
2023-04-02T00:04:24.170Z,4.49
2023-04-02T00:07:33.429Z,4.46
2023-04-02T00:11:09.258Z,4.53
2023-04-02T00:14:33.677Z,4.57
2023-04-02T00:17:36.533Z,4.75
2023-04-02T00:20:43.153Z,4.82
2023-04-02T00:23:46.542Z,4.86
2023-04-02T00:26:51.890Z,5.12
2023-04-02T00:29:56.877Z,5.35
2023-04-02T00:32:59.717Z,5.50
2023-04-02T00:36:08.109Z,5.78
2023-04-02T00:39:21.262Z,6.05
2023-04-02T00:42:25.504Z,6.26
2023-04-02T00:45:32.350Z,6.41
2023-04-02T00:48:46.062Z,6.38
2023-04-02T00:51:55.261Z,6.51
2023-04-02T00:55:07.531Z,6.47
2023-04-02T00:58:27.897Z,6.74
2023-04-02T01:01:37.674Z,6.51
2023-04-02T01:04:41.812Z,6.92
2023-04-02T01:07:51.575Z,6.62
2023-04-02T01:11:04.789Z,6.45
2023-04-02T01:14:19.980Z,6.87
2023-04-02T01:17:43.876Z,7.03
2023-04-02T01:21:03.539Z,6.95
2023-04-02T01:24:09.571Z,6.71
2023-04-02T01:27:28.859Z,6.58
2023-04-02T01:30:35.015Z,6.51
2023-04-02T01:33:41.525Z,6.41
2023-04-02T01:37:06.005Z,6.55
2023-04-02T01:40:33.666Z,6.58
2023-04-02T01:44:08.314Z,6.75
2023-04-02T01:47:15.002Z,6.77
2023-04-02T01:50:21.086Z,6.53
2023-04-02T01:53:27.864Z,6.41
2023-04-02T01:56:30.825Z,6.31
2023-04-02T01:59:33.780Z,6.23
2023-04-02T02:02:40.987Z,6.26
2023-04-02T02:05:44.566Z,6.24
2023-04-02T02:08:56.611Z,6.17
2023-04-02T02:12:02.836Z,6.14
2023-04-02T02:15:16.172Z,6.08
2023-04-02T02:18:27.781Z,5.95
2023-04-02T02:21:36.696Z,5.85
2023-04-02T02:24:41.255Z,5.79
2023-04-02T02:28:10.485Z,5.72
2023-04-02T02:31:20.228Z,5.58
2023-04-02T02:34:37.267Z,5.48
2023-04-02T02:37:45.228Z,5.42
2023-04-02T02:40:54.896Z,5.42
2023-04-02T02:44:11.703Z,5.49
2023-04-02T02:47:32.780Z,5.43
2023-04-02T02:50:39.049Z,5.53
2023-04-02T02:53:53.028Z,5.61
2023-04-02T02:57:01.479Z,5.70
2023-04-02T03:00:09.993Z,5.84
2023-04-02T03:03:19.247Z,5.96
2023-04-02T03:06:25.966Z,6.03
2023-04-02T03:09:49.101Z,6.17
2023-04-02T03:13:00.159Z,6.33
2023-04-02T03:16:11.526Z,6.36
2023-04-02T03:19:49.964Z,6.37
2023-04-02T03:23:22.344Z,6.12
2023-04-02T03:26:58.131Z,5.70
2023-04-02T03:30:23.665Z,5.30
2023-04-02T03:33:41.012Z,5.06
2023-04-02T03:37:08.526Z,4.98
2023-04-02T03:40:21.005Z,4.85
2023-04-02T03:43:46.388Z,4.91
2023-04-02T03:46:58.415Z,4.80
2023-04-02T03:50:44.408Z,4.81
2023-04-02T03:53:48.664Z,4.59
2023-04-02T03:56:53.450Z,4.52
2023-04-02T04:00:14.520Z,4.57
2023-04-02T04:03:42.148Z,4.61
2023-04-02T04:06:49.941Z,4.67
2023-04-02T04:09:54.599Z,4.71
2023-04-02T04:13:05.534Z,4.85
2023-04-02T04:16:14.761Z,4.92
2023-04-02T04:19:23.026Z,4.93
2023-04-02T04:22:32.868Z,4.87
2023-04-02T04:25:49.584Z,4.69
2023-04-02T04:29:09.807Z,4.80
2023-04-02T04:32:35.055Z,4.77
2023-04-02T04:35:54.387Z,4.77
2023-04-02T04:39:06.093Z,4.75
2023-04-02T04:42:18.304Z,4.67
2023-04-02T04:45:47.950Z,4.65
2023-04-02T04:49:11.434Z,4.64
2023-04-02T04:52:23.884Z,4.71
2023-04-02T04:55:31.210Z,4.83
2023-04-02T04:59:02.444Z,4.94
2023-04-02T05:02:09.278Z,5.01
2023-04-02T05:05:20.224Z,5.29
2023-04-02T05:08:32.737Z,5.20
2023-04-02T05:11:46.116Z,5.47
2023-04-02T05:15:11.643Z,5.55
2023-04-02T05:18:31.147Z,5.76
2023-04-02T05:21:58.427Z,5.66
2023-04-02T05:25:11.334Z,5.80
2023-04-02T05:28:18.499Z,5.95
2023-04-02T05:31:33.005Z,6.06
2023-04-02T05:34:39.569Z,6.31
2023-04-02T05:37:43.577Z,6.48
2023-04-02T05:40:51.171Z,6.65
2023-04-02T05:44:35.053Z,6.81
2023-04-02T05:47:43.500Z,7.13
2023-04-02T05:50:54.590Z,7.29
2023-04-02T05:54:06.767Z,7.19
2023-04-02T05:57:16.312Z,7.45
2023-04-02T06:00:47.775Z,7.73
2023-04-02T06:04:03.030Z,7.74
2023-04-02T06:07:09.226Z,7.93
2023-04-02T06:10:24.758Z,8.01
2023-04-02T06:13:28.892Z,8.02
2023-04-02T06:16:34.629Z,8.34
2023-04-02T06:19:39.683Z,8.63
2023-04-02T06:23:52.751Z,8.81
2023-04-02T06:27:02.526Z,8.89
2023-04-02T06:30:10.230Z,9.15
2023-04-02T06:33:13.607Z,9.25
2023-04-02T06:36:21.407Z,9.46
2023-04-02T06:39:27.259Z,9.54
2023-04-02T06:42:36.176Z,9.83
2023-04-02T06:45:49.998Z,10.13
2023-04-02T06:49:40.517Z,10.44
2023-04-02T06:52:59.245Z,10.87
2023-04-02T06:56:33.133Z,11.12
2023-04-02T06:59:36.931Z,11.32
2023-04-02T07:02:43.464Z,12.09
2023-04-02T07:05:47.974Z,12.51
2023-04-02T07:08:51.483Z,13.87
2023-04-02T07:11:55.469Z,15.31
2023-04-02T07:14:58.408Z,15.89
2023-04-02T07:18:01.536Z,15.84
2023-04-02T07:21:04.886Z,15.53
2023-04-02T07:24:08.203Z,15.44
2023-04-02T07:27:12.573Z,15.41
2023-04-02T07:30:15.692Z,16.26
2023-04-02T07:33:21.855Z,16.21
2023-04-02T07:36:25.065Z,16.35
2023-04-02T07:39:27.858Z,18.67
2023-04-02T07:42:31.065Z,20.03
2023-04-02T07:45:34.133Z,19.77
2023-04-02T07:48:37.739Z,19.20
2023-04-02T07:51:40.875Z,18.96
2023-04-02T07:54:44.148Z,18.99
2023-04-02T07:57:52.381Z,18.55
2023-04-02T08:00:55.233Z,18.31
2023-04-02T08:03:58.373Z,18.43
2023-04-02T08:07:01.751Z,19.94
2023-04-02T08:10:05.293Z,20.47
2023-04-02T08:13:08.263Z,19.74
2023-04-02T08:16:11.284Z,19.74
2023-04-02T08:19:14.197Z,18.27
2023-04-02T08:22:17.019Z,18.57
2023-04-02T08:25:19.948Z,18.74
2023-04-02T08:28:23.094Z,19.25
2023-04-02T08:31:26.098Z,20.31
2023-04-02T08:34:29.000Z,20.07
2023-04-02T08:37:31.818Z,19.96
2023-04-02T08:40:39.190Z,18.99
2023-04-02T08:44:05.412Z,18.62
2023-04-02T08:47:10.962Z,18.61
2023-04-02T08:50:30.779Z,19.56
2023-04-02T08:53:40.521Z,20.43
2023-04-02T08:56:57.502Z,20.17
2023-04-02T09:00:10.745Z,20.03
2023-04-02T09:03:26.086Z,20.15
2023-04-02T09:06:29.909Z,20.38
2023-04-02T09:09:37.964Z,21.48
2023-04-02T09:12:42.409Z,21.85
2023-04-02T09:15:45.504Z,22.46
2023-04-02T09:18:50.753Z,21.67
2023-04-02T09:22:02.067Z,21.09
2023-04-02T09:25:12.605Z,19.84
2023-04-02T09:28:16.117Z,19.99
2023-04-02T09:31:34.597Z,20.07
2023-04-02T09:34:37.418Z,20.02
2023-04-02T09:37:41.019Z,20.09
2023-04-02T09:40:47.009Z,20.54
2023-04-02T09:43:49.941Z,21.20
2023-04-02T09:47:03.761Z,21.54
2023-04-02T09:50:22.051Z,21.83
2023-04-02T09:53:30.140Z,22.23
2023-04-02T09:56:37.856Z,21.72
2023-04-02T09:59:41.058Z,22.46
2023-04-02T10:02:46.790Z,22.54
2023-04-02T10:05:49.729Z,22.31
2023-04-02T10:08:52.597Z,22.90
2023-04-02T10:11:56.859Z,23.18
2023-04-02T10:15:01.525Z,22.35
2023-04-02T10:18:23.468Z,22.85
2023-04-02T10:21:37.868Z,22.96
2023-04-02T10:24:41.130Z,22.25
2023-04-02T10:27:59.040Z,23.95
2023-04-02T10:31:22.654Z,24.16
2023-04-02T10:34:31.227Z,22.52
2023-04-02T10:37:46.237Z,22.71
2023-04-02T10:40:55.866Z,22.86
2023-04-02T10:44:17.074Z,23.24
2023-04-02T10:47:38.309Z,23.22
2023-04-02T10:50:51.939Z,21.69
2023-04-02T10:54:13.930Z,21.35
2023-04-02T10:57:16.852Z,21.68
2023-04-02T11:00:28.030Z,22.64
2023-04-02T11:03:43.646Z,24.50
2023-04-02T11:06:58.058Z,24.56
2023-04-02T11:10:07.113Z,25.75
2023-04-02T11:13:20.795Z,28.19
2023-04-02T11:16:24.672Z,27.80
2023-04-02T11:19:36.094Z,28.26
2023-04-02T11:22:39.292Z,25.70
2023-04-02T11:25:43.356Z,23.09
2023-04-02T11:28:46.544Z,23.11
2023-04-02T11:31:52.593Z,21.03
2023-04-02T11:35:05.859Z,20.85
2023-04-02T11:38:10.041Z,22.20
2023-04-02T11:41:13.199Z,21.28
2023-04-02T11:44:24.341Z,20.97
2023-04-02T11:47:30.020Z,20.81
2023-04-02T11:50:44.673Z,22.52
2023-04-02T11:53:48.563Z,23.72
2023-04-02T11:57:16.012Z,22.58
2023-04-02T12:00:48.134Z,20.78
2023-04-02T12:03:57.150Z,19.59
2023-04-02T12:07:12.985Z,18.80
2023-04-02T12:10:17.652Z,19.16
2023-04-02T12:13:22.040Z,20.98
2023-04-02T12:16:31.570Z,20.99
2023-04-02T12:19:34.527Z,20.72
2023-04-02T12:22:47.809Z,20.17
2023-04-02T12:25:58.553Z,20.46
2023-04-02T12:29:16.704Z,20.02
2023-04-02T12:32:30.043Z,20.69
2023-04-02T12:35:36.754Z,22.34
2023-04-02T12:38:52.044Z,23.40
2023-04-02T12:41:55.238Z,25.76
2023-04-02T12:44:58.266Z,27.10
2023-04-02T12:48:05.682Z,24.08
2023-04-02T12:51:10.809Z,22.37
2023-04-02T12:54:17.784Z,21.63
2023-04-02T12:57:26.603Z,20.06
2023-04-02T13:00:31.716Z,19.49
2023-04-02T13:03:34.982Z,18.84
2023-04-02T13:06:39.312Z,18.81
2023-04-02T13:09:49.114Z,18.72
2023-04-02T13:12:58.005Z,18.69
2023-04-02T13:16:22.520Z,18.76
2023-04-02T13:19:29.912Z,20.77
2023-04-02T13:22:32.946Z,23.01
2023-04-02T13:25:37.085Z,26.25
2023-04-02T13:28:39.968Z,26.20
2023-04-02T13:31:43.361Z,24.43
2023-04-02T13:34:46.757Z,22.94
2023-04-02T13:37:49.744Z,23.26
2023-04-02T13:40:52.745Z,22.51
2023-04-02T13:43:59.893Z,22.12
2023-04-02T13:47:02.736Z,21.06
2023-04-02T13:50:05.898Z,20.09
2023-04-02T13:53:17.965Z,19.33
2023-04-02T13:56:23.072Z,18.68
2023-04-02T13:59:27.437Z,18.41
2023-04-02T14:02:30.894Z,18.00
2023-04-02T14:05:40.498Z,17.63
2023-04-02T14:09:11.317Z,17.35
2023-04-02T14:12:14.104Z,19.10
2023-04-02T14:15:47.690Z,19.56
2023-04-02T14:19:12.408Z,19.24
2023-04-02T14:22:43.499Z,18.60
2023-04-02T14:25:55.632Z,18.35
2023-04-02T14:29:29.205Z,17.86
2023-04-02T14:33:01.608Z,17.78
2023-04-02T14:36:24.307Z,19.00
2023-04-02T14:40:11.564Z,18.35
2023-04-02T14:43:41.004Z,18.13
2023-04-02T14:46:44.014Z,17.59
2023-04-02T14:49:50.803Z,17.03
2023-04-02T14:52:58.891Z,16.48
2023-04-02T14:56:06.357Z,16.20
2023-04-02T14:59:26.102Z,16.12
2023-04-02T15:02:58.149Z,16.08
2023-04-02T15:06:06.296Z,16.03
2023-04-02T15:09:30.899Z,15.97
2023-04-02T15:12:37.453Z,15.72
2023-04-02T15:15:49.181Z,15.87
2023-04-02T15:19:01.005Z,15.74
2023-04-02T15:22:29.709Z,15.49
2023-04-02T15:25:43.088Z,15.49
2023-04-02T15:28:58.484Z,15.43
2023-04-02T15:32:26.844Z,15.22
2023-04-02T15:35:39.723Z,15.38
2023-04-02T15:38:52.481Z,15.54
2023-04-02T15:42:10.765Z,15.39
2023-04-02T15:45:22.486Z,15.23
2023-04-02T15:48:39.628Z,15.32
2023-04-02T15:51:53.792Z,15.39
2023-04-02T15:55:10.709Z,15.42
2023-04-02T15:58:28.873Z,15.26
2023-04-02T16:01:42.988Z,15.20
2023-04-02T16:04:53.140Z,15.15
2023-04-02T16:08:43.986Z,15.04
2023-04-02T16:11:46.957Z,14.94
2023-04-02T16:14:50.096Z,14.68
2023-04-02T16:18:06.484Z,14.38
2023-04-02T16:21:14.709Z,14.28
2023-04-02T16:24:17.881Z,14.22
2023-04-02T16:27:38.770Z,14.04
2023-04-02T16:30:51.395Z,14.12
2023-04-02T16:34:18.523Z,13.94
2023-04-02T16:37:24.224Z,13.85
2023-04-02T16:40:33.285Z,13.82
2023-04-02T16:43:48.575Z,13.84
2023-04-02T16:47:04.366Z,13.79
2023-04-02T16:50:13.130Z,13.74
2023-04-02T16:54:01.669Z,13.63
2023-04-02T16:57:17.587Z,13.63
2023-04-02T17:00:38.891Z,13.64
2023-04-02T17:03:51.138Z,13.52
2023-04-02T17:07:23.596Z,13.48
2023-04-02T17:10:32.548Z,13.34
2023-04-02T17:14:12.542Z,13.26
2023-04-02T17:17:16.648Z,13.21
2023-04-02T17:20:23.721Z,13.17
2023-04-02T17:23:28.367Z,13.13
2023-04-02T17:26:35.110Z,13.10
2023-04-02T17:29:41.168Z,13.08
2023-04-02T17:32:44.536Z,13.05
2023-04-02T17:36:00.014Z,12.93
2023-04-02T17:39:49.584Z,12.83
2023-04-02T17:43:17.845Z,12.84
2023-04-02T17:46:53.978Z,12.78
2023-04-02T17:50:12.517Z,12.72
2023-04-02T17:53:15.583Z,12.69
2023-04-02T17:56:41.527Z,12.71
2023-04-02T17:59:54.168Z,12.66
2023-04-02T18:03:16.085Z,12.68
2023-04-02T18:06:27.322Z,12.63
2023-04-02T18:09:39.115Z,12.63
2023-04-02T18:12:57.163Z,12.55
2023-04-02T18:16:00.464Z,12.49
2023-04-02T18:19:25.007Z,12.49
2023-04-02T18:22:46.624Z,12.43
2023-04-02T18:25:49.719Z,12.41
2023-04-02T18:29:15.019Z,12.37
2023-04-02T18:32:27.556Z,12.29
2023-04-02T18:35:43.461Z,12.25
2023-04-02T18:39:02.132Z,12.28
2023-04-02T18:42:39.216Z,12.25
2023-04-02T18:45:48.331Z,12.21
2023-04-02T18:49:18.450Z,12.10
2023-04-02T18:52:25.054Z,12.13
2023-04-02T18:55:30.677Z,12.18
2023-04-02T18:58:43.084Z,12.05
2023-04-02T19:01:51.601Z,11.96
2023-04-02T19:05:36.204Z,11.96
2023-04-02T19:08:48.332Z,11.89
2023-04-02T19:11:53.171Z,11.92
2023-04-02T19:14:59.125Z,11.91
2023-04-02T19:18:10.829Z,11.84
2023-04-02T19:21:54.374Z,11.87
2023-04-02T19:25:18.340Z,11.81
2023-04-02T19:28:34.055Z,11.74
2023-04-02T19:31:47.596Z,11.70
2023-04-02T19:35:09.576Z,11.61
2023-04-02T19:38:34.221Z,11.53
2023-04-02T19:41:49.731Z,11.43
2023-04-02T19:44:54.275Z,11.44
2023-04-02T19:48:00.976Z,11.40
2023-04-02T19:51:04.158Z,11.36
2023-04-02T19:54:07.289Z,11.29
2023-04-02T19:57:15.818Z,11.23
2023-04-02T20:00:19.247Z,11.02
2023-04-02T20:03:22.978Z,10.94
2023-04-02T20:06:26.394Z,10.94
2023-04-02T20:09:30.009Z,10.88
2023-04-02T20:12:33.360Z,10.84
2023-04-02T20:15:36.792Z,10.71
2023-04-02T20:18:40.598Z,10.54
2023-04-02T20:21:44.047Z,10.31
2023-04-02T20:24:47.134Z,10.10
2023-04-02T20:27:50.157Z,9.94
2023-04-02T20:30:53.965Z,9.79
2023-04-02T20:33:58.277Z,9.67
2023-04-02T20:37:03.624Z,9.53
2023-04-02T20:40:07.377Z,9.49
2023-04-02T20:43:10.878Z,9.40
2023-04-02T20:46:14.467Z,9.27
2023-04-02T20:49:17.413Z,9.13
2023-04-02T20:52:22.165Z,9.02
2023-04-02T20:55:25.018Z,8.80
2023-04-02T20:58:37.761Z,8.68
2023-04-02T21:01:43.727Z,8.51
2023-04-02T21:04:46.654Z,8.46
2023-04-02T21:07:49.539Z,8.38
2023-04-02T21:10:52.433Z,8.43
2023-04-02T21:13:55.442Z,8.27
2023-04-02T21:16:58.293Z,8.10
2023-04-02T21:20:01.179Z,7.98
2023-04-02T21:23:04.039Z,7.95
2023-04-02T21:26:07.893Z,7.77
2023-04-02T21:29:12.506Z,7.74
2023-04-02T21:32:21.619Z,7.64
2023-04-02T21:35:25.098Z,7.56
2023-04-02T21:38:28.385Z,7.49
2023-04-02T21:41:32.950Z,7.36
2023-04-02T21:44:35.696Z,7.19
2023-04-02T21:47:38.611Z,7.15
2023-04-02T21:50:41.594Z,7.00
2023-04-02T21:53:45.450Z,6.93
2023-04-02T21:56:54.101Z,6.81
2023-04-02T21:59:59.941Z,6.70
2023-04-02T22:03:03.010Z,6.65
2023-04-02T22:06:10.641Z,6.58
2023-04-02T22:09:17.200Z,6.51
2023-04-02T22:12:20.091Z,6.55
2023-04-02T22:15:22.895Z,6.53
2023-04-02T22:18:26.031Z,6.50
2023-04-02T22:21:30.861Z,6.50
2023-04-02T22:24:33.678Z,6.42
2023-04-02T22:27:36.452Z,6.37
2023-04-02T22:30:39.482Z,6.38
2023-04-02T22:33:44.535Z,6.37
2023-04-02T22:36:47.523Z,6.33
2023-04-02T22:39:50.543Z,6.29
2023-04-02T22:42:53.609Z,6.20
2023-04-02T22:45:56.429Z,6.14
2023-04-02T22:48:59.397Z,6.09
2023-04-02T22:52:03.816Z,6.03
2023-04-02T22:55:08.082Z,5.98
2023-04-02T22:58:11.062Z,5.87
2023-04-02T23:01:21.757Z,5.83
2023-04-02T23:04:24.681Z,5.76
2023-04-02T23:07:27.494Z,5.71
2023-04-02T23:10:30.968Z,5.68
2023-04-02T23:13:34.830Z,5.66
2023-04-02T23:16:37.689Z,5.58
2023-04-02T23:19:40.517Z,5.56
2023-04-02T23:22:43.407Z,5.49
2023-04-02T23:25:46.279Z,5.46
2023-04-02T23:28:50.717Z,5.37
2023-04-02T23:31:53.576Z,5.33
2023-04-02T23:34:56.575Z,5.31
2023-04-02T23:37:59.505Z,5.26
2023-04-02T23:41:02.354Z,5.22
2023-04-02T23:44:06.047Z,5.20
2023-04-02T23:47:09.650Z,5.23
2023-04-02T23:50:12.623Z,5.27
2023-04-02T23:53:16.578Z,5.35
2023-04-02T23:56:20.128Z,5.39
2023-04-02T23:59:22.922Z,5.40
